EDHL 201950Z 24001KT CAVOK 10/09 Q1025 EDHL 201920Z VRB01KT CAVOK 10/09 Q1025 EDHL 201850Z 25002KT CAVOK 11/10 Q1025 EDHL 201820Z 00000KT CAVOK 11/09 Q1025 EDHL 201750Z VRB02KT CAVOK 12/09 Q1024 EDHL 201720Z 01004KT CAVOK 12/09 Q1024 EDHL 201650Z 02004KT CAVOK 13/08 Q1024 EDHL 201620Z 01005KT CAVOK 13/08 Q1024 EDHL 201550Z 01005KT 330V050 9999 SCT029 13/08 Q1024 EDHL 201520Z 36005KT CAVOK 14/08 Q1024 EDHL 201450Z 36005KT 320V030 CAVOK 14/08 Q1023 EDHL 201420Z 35007KT CAVOK 14/08 Q1023 EDHL 201350Z 35007KT 310V020 CAVOK 13/07 Q1023 EDHL 201320Z 01006KT CAVOK 13/08 Q1023 EDHL 201250Z 34006KT CAVOK 13/08 Q1023 EDHL 201220Z 35006KT CAVOK 13/09 Q1023 EDHL 201150Z 36005KT CAVOK 13/08 Q1023 EDHL 201120Z 35005KT CAVOK 13/09 Q1023 EDHL 201050Z 32004KT 290V350 9999 BKN048 13/09 Q1023 EDHL 201020Z VRB04KT 9999 SCT041 13/09 Q1023 EDHL 200950Z 33004KT 9999 BKN044 13/09 Q1023 EDHL 200920Z 32004KT 290V360 9999 BKN045 12/09 Q1023 EDHL 200850Z VRB02KT 9999 BKN046 13/09 Q1023 EDHL 200820Z 03001KT 9999 BKN046 12/08 Q1023 EDHL 200750Z 36002KT 9999 BKN047 12/08 Q1022 EDHL 200720Z 01003KT 9999 BKN048 12/08 Q1022 EDHL 200650Z VRB02KT 9999 BKN049 11/10 Q1022 EDHL 200620Z VRB01KT 9999 BKN048 10/09 Q1022 EDHL 200550Z VRB01KT CAVOK 10/09 Q1022 EDHL 200520Z VRB02KT CAVOK 10/09 Q1022 EDHL 200450Z VRB01KT CAVOK 10/08 Q1022 EDHL 200420Z VRB01KT 9999 BKN049 10/08 Q1021 EDHL 200350Z VRB01KT 9999 BKN048 10/08 Q1021 EDHL 191950Z 08006KT CAVOK 12/08 Q1020 EDHL 191920Z 08007KT CAVOK 12/08 Q1020 EDHL 191850Z 07005KT CAVOK 12/09 Q1020 EDHL 191820Z 08006KT CAVOK 13/08 Q1020 EDHL 191750Z 08007KT 050V110 CAVOK 13/08 Q1019 EDHL 191720Z 08007KT CAVOK 13/09 Q1019 EDHL 191650Z 08007KT CAVOK 13/09 Q1019 EDHL 191620Z 08008KT 9999 BKN048 14/08 Q1019 EDHL 191550Z 07007KT CAVOK 15/08 Q1019 EDHL 191520Z 07007KT 9999 FEW025 15/08 Q1019 EDHL 191450Z 08007KT 050V110 9999 FEW025 15/08 Q1019

METAR Messwerte

Zurück zur Übersicht

Ort
m ü. NN
Zeit Temperatur Taupunkt Rel.
Luftfeuchte
Luftdruck:
Altimeter
NN
Station
Wind in Beaufort
(Knoten)
Sichtweite
(Meter)
Wolken
(Meter über Grund)
Wettererscheinung
Lübeck-Blankensee
16
Mo 20.09. 21:5010993 %1025
1025
1023
WSW 1 (1)>= 10000Nicht signifikant 
Lübeck-Blankensee
16
Mo 20.09. 21:2010993 %1025
1025
1023
Uml 1 (1)>= 10000Nicht signifikant 
Lübeck-Blankensee
16
Mo 20.09. 20:50111094 %1025
1025
1023
WSW 1 (2)>= 10000Nicht signifikant 
Lübeck-Blankensee
16
Mo 20.09. 20:2011987 %1025
1025
1023
Windstill>= 10000Nicht signifikant 
Lübeck-Blankensee
16
Mo 20.09. 19:5012982 %1024
1024
1022
Uml 1 (2)>= 10000Nicht signifikant 
Lübeck-Blankensee
16
Mo 20.09. 19:2012982 %1024
1024
1022
N 2 (4)>= 10000Nicht signifikant 
Lübeck-Blankensee
16
Mo 20.09. 18:5013872 %1024
1024
1022
NNO 2 (4)>= 10000Nicht signifikant 
Lübeck-Blankensee
16
Mo 20.09. 18:2013872 %1024
1024
1022
N 2 (5)>= 10000Nicht signifikant 
Lübeck-Blankensee
16
Mo 20.09. 17:5013872 %1024
1024
1022
N 2 (5)
NNW - NO
>= 10000Wolkig (880) 
Lübeck-Blankensee
16
Mo 20.09. 17:2014867 %1024
1024
1022
N 2 (5)>= 10000Nicht signifikant 
Lübeck-Blankensee
16
Mo 20.09. 16:5014867 %1023
1023
1021
N 2 (5)
NW - NNO
>= 10000Nicht signifikant 
Lübeck-Blankensee
16
Mo 20.09. 16:2014867 %1023
1023
1021
N 3 (7)>= 10000Nicht signifikant 
Lübeck-Blankensee
16
Mo 20.09. 15:5013767 %1023
1023
1021
N 3 (7)
NW - NNO
>= 10000Nicht signifikant 
Lübeck-Blankensee
16
Mo 20.09. 15:2013872 %1023
1023
1021
N 2 (6)>= 10000Nicht signifikant 
Lübeck-Blankensee
16
Mo 20.09. 14:5013872 %1023
1023
1021
NNW 2 (6)>= 10000Nicht signifikant 
Lübeck-Blankensee
16
Mo 20.09. 14:2013977 %1023
1023
1021
N 2 (6)>= 10000Nicht signifikant 
Lübeck-Blankensee
16
Mo 20.09. 13:5013872 %1023
1023
1021
N 2 (5)>= 10000Nicht signifikant 
Lübeck-Blankensee
16
Mo 20.09. 13:2013977 %1023
1023
1021
N 2 (5)>= 10000Nicht signifikant 
Lübeck-Blankensee
16
Mo 20.09. 12:5013977 %1023
1023
1021
NW 2 (4)
WNW - N
>= 10000Stark bewölkt (1500) 
Lübeck-Blankensee
16
Mo 20.09. 12:2013977 %1023
1023
1021
Uml 2 (4)>= 10000Wolkig (1200) 
Lübeck-Blankensee
16
Mo 20.09. 11:5013977 %1023
1023
1021
NNW 2 (4)>= 10000Stark bewölkt (1300) 
Lübeck-Blankensee
16
Mo 20.09. 11:2012982 %1023
1023
1021
NW 2 (4)
WNW - N
>= 10000Stark bewölkt (1400) 
Lübeck-Blankensee
16
Mo 20.09. 10:5013977 %1023
1023
1021
Uml 1 (2)>= 10000Stark bewölkt (1400) 
Lübeck-Blankensee
16
Mo 20.09. 10:2012876 %1023
1023
1021
NNO 1 (1)>= 10000Stark bewölkt (1400) 
Lübeck-Blankensee
16
Mo 20.09. 09:5012876 %1022
1022
1020
N 1 (2)>= 10000Stark bewölkt (1400) 
Lübeck-Blankensee
16
Mo 20.09. 09:2012876 %1022
1022
1020
N 2 (3)>= 10000Stark bewölkt (1500) 
Lübeck-Blankensee
16
Mo 20.09. 08:50111094 %1022
1022
1020
Uml 1 (2)>= 10000Stark bewölkt (1500) 
Lübeck-Blankensee
16
Mo 20.09. 08:2010993 %1022
1022
1020
Uml 1 (1)>= 10000Stark bewölkt (1500) 
Lübeck-Blankensee
16
Mo 20.09. 07:5010993 %1022
1022
1020
Uml 1 (1)>= 10000Nicht signifikant 
Lübeck-Blankensee
16
Mo 20.09. 07:2010993 %1022
1022
1020
Uml 1 (2)>= 10000Nicht signifikant 
Lübeck-Blankensee
16
Mo 20.09. 06:5010887 %1022
1022
1020
Uml 1 (1)>= 10000Nicht signifikant 
Lübeck-Blankensee
16
Mo 20.09. 06:2010887 %1021
1021
1019
Uml 1 (1)>= 10000Stark bewölkt (1500) 
Lübeck-Blankensee
16
Mo 20.09. 05:5010887 %1021
1021
1019
Uml 1 (1)>= 10000Stark bewölkt (1500) 
Lübeck-Blankensee
16
So 19.09. 21:5012876 %1020
1020
1018
O 2 (6)>= 10000Nicht signifikant 
Lübeck-Blankensee
16
So 19.09. 21:2012876 %1020
1020
1018
O 3 (7)>= 10000Nicht signifikant 
Lübeck-Blankensee
16
So 19.09. 20:5012982 %1020
1020
1018
ONO 2 (5)>= 10000Nicht signifikant 
Lübeck-Blankensee
16
So 19.09. 20:2013872 %1020
1020
1018
O 2 (6)>= 10000Nicht signifikant 
Lübeck-Blankensee
16
So 19.09. 19:5013872 %1019
1019
1017
O 3 (7)
NO - OSO
>= 10000Nicht signifikant 
Lübeck-Blankensee
16
So 19.09. 19:2013977 %1019
1019
1017
O 3 (7)>= 10000Nicht signifikant 
Lübeck-Blankensee
16
So 19.09. 18:5013977 %1019
1019
1017
O 3 (7)>= 10000Nicht signifikant 
Lübeck-Blankensee
16
So 19.09. 18:2014867 %1019
1019
1017
O 3 (8)>= 10000Stark bewölkt (1500) 
Lübeck-Blankensee
16
So 19.09. 17:5015863 %1019
1019
1017
ONO 3 (7)>= 10000Nicht signifikant 
Lübeck-Blankensee
16
So 19.09. 17:2015863 %1019
1019
1017
ONO 3 (7)>= 10000Leicht bewölkt (760) 
Lübeck-Blankensee
16
So 19.09. 16:5015863 %1019
1019
1017
O 3 (7)
NO - OSO
>= 10000Leicht bewölkt (760) 

Altimeter: Einstellung am Altimeter (Höhenmesser), die Höhe 0 muss auf diesen Luftdruckwert zeigen, damit das Gerät die Stationshöhe richtig anzeigt.

NN: Luftdruck reduziert auf "Normal Null", auf Meereshöhe, dieser von der Temperatur abhängige Wert wird bisweilen unkorrekt einfach als "Luftdruck" bezeichnet. Eigentlich nur eine fiktive Größe, die es erlaubt, Stationen auf unterschiedlichen Höhen miteinander zu vergleichen.

Station: Realer Luftdruck an der Station.